sensor_id;sensor_type;location;lat;lon;timestamp;P1;P2;P0
20157;PMS5003;10239;56.820;24.416;2023-04-09T00:01:43;16.40;12.80;5.20
20157;PMS5003;10239;56.820;24.416;2023-04-09T00:04:11;16.40;13.00;7.00
20157;PMS5003;10239;56.820;24.416;2023-04-09T00:06:38;23.20;12.00;7.00
20157;PMS5003;10239;56.820;24.416;2023-04-09T00:09:06;13.40;10.00;5.00
20157;PMS5003;10239;56.820;24.416;2023-04-09T00:11:34;11.20;10.20;4.00
20157;PMS5003;10239;56.820;24.416;2023-04-09T00:14:02;10.60;10.60;7.00
20157;PMS5003;10239;56.820;24.416;2023-04-09T00:16:29;17.40;13.20;7.60
20157;PMS5003;10239;56.820;24.416;2023-04-09T00:18:57;13.00;13.00;7.00
20157;PMS5003;10239;56.820;24.416;2023-04-09T00:21:24;9.00;6.40;2.20
20157;PMS5003;10239;56.820;24.416;2023-04-09T00:23:52;17.40;13.60;7.20
20157;PMS5003;10239;56.820;24.416;2023-04-09T00:26:20;13.80;11.40;7.00
20157;PMS5003;10239;56.820;24.416;2023-04-09T00:28:48;13.80;12.60;6.60
20157;PMS5003;10239;56.820;24.416;2023-04-09T00:31:15;2.60;1.20;0.00
20157;PMS5003;10239;56.820;24.416;2023-04-09T00:33:46;16.60;8.00;4.40
20157;PMS5003;10239;56.820;24.416;2023-04-09T00:36:14;17.00;11.60;6.80
20157;PMS5003;10239;56.820;24.416;2023-04-09T00:38:41;15.20;12.00;5.20
20157;PMS5003;10239;56.820;24.416;2023-04-09T00:41:09;15.20;10.20;5.40
20157;PMS5003;10239;56.820;24.416;2023-04-09T00:43:36;4.20;3.40;0.00
20157;PMS5003;10239;56.820;24.416;2023-04-09T00:46:04;7.80;6.60;0.00
20157;PMS5003;10239;56.820;24.416;2023-04-09T00:48:31;11.60;10.20;5.20
20157;PMS5003;10239;56.820;24.416;2023-04-09T00:50:59;13.40;13.40;6.80
20157;PMS5003;10239;56.820;24.416;2023-04-09T00:53:27;23.40;19.20;7.00
20157;PMS5003;10239;56.820;24.416;2023-04-09T00:55:54;19.80;16.00;8.00
20157;PMS5003;10239;56.820;24.416;2023-04-09T00:58:24;17.20;14.60;9.60
20157;PMS5003;10239;56.820;24.416;2023-04-09T01:00:51;20.80;15.60;9.20
20157;PMS5003;10239;56.820;24.416;2023-04-09T01:03:19;15.40;12.60;7.40
20157;PMS5003;10239;56.820;24.416;2023-04-09T01:05:55;8.60;7.00;1.00
20157;PMS5003;10239;56.820;24.416;2023-04-09T01:17:05;20.40;14.80;7.60
20157;PMS5003;10239;56.820;24.416;2023-04-09T01:20:02;12.40;7.80;4.40
20157;PMS5003;10239;56.820;24.416;2023-04-09T01:22:58;16.00;12.40;6.40
20157;PMS5003;10239;56.820;24.416;2023-04-09T01:25:44;14.80;13.60;6.80
20157;PMS5003;10239;56.820;24.416;2023-04-09T01:28:26;20.80;9.60;4.00
20157;PMS5003;10239;56.820;24.416;2023-04-09T01:31:00;14.20;11.20;6.40
20157;PMS5003;10239;56.820;24.416;2023-04-09T01:33:33;14.60;10.00;4.00
20157;PMS5003;10239;56.820;24.416;2023-04-09T01:36:04;17.80;10.40;3.80
20157;PMS5003;10239;56.820;24.416;2023-04-09T01:38:38;16.00;14.80;9.40
20157;PMS5003;10239;56.820;24.416;2023-04-09T01:41:10;20.00;14.40;9.00
20157;PMS5003;10239;56.820;24.416;2023-04-09T01:43:42;17.20;15.20;9.20
20157;PMS5003;10239;56.820;24.416;2023-04-09T01:46:12;16.80;14.40;9.20
20157;PMS5003;10239;56.820;24.416;2023-04-09T01:48:40;17.20;12.80;8.60
20157;PMS5003;10239;56.820;24.416;2023-04-09T01:51:09;17.40;12.40;6.20
20157;PMS5003;10239;56.820;24.416;2023-04-09T01:53:43;19.40;15.60;8.40
20157;PMS5003;10239;56.820;24.416;2023-04-09T01:56:11;9.60;9.00;3.80
20157;PMS5003;10239;56.820;24.416;2023-04-09T01:58:39;10.80;7.00;6.00
20157;PMS5003;10239;56.820;24.416;2023-04-09T02:01:11;15.20;15.20;8.60
20157;PMS5003;10239;56.820;24.416;2023-04-09T02:04:13;16.20;12.40;6.60
20157;PMS5003;10239;56.820;24.416;2023-04-09T02:06:57;18.60;15.40;7.80
20157;PMS5003;10239;56.820;24.416;2023-04-09T02:09:32;33.40;25.00;12.00
20157;PMS5003;10239;56.820;24.416;2023-04-09T02:12:03;30.60;24.80;13.40
20157;PMS5003;10239;56.820;24.416;2023-04-09T02:14:33;20.00;11.20;5.60
20157;PMS5003;10239;56.820;24.416;2023-04-09T02:17:03;30.60;22.80;13.40
20157;PMS5003;10239;56.820;24.416;2023-04-09T02:19:44;27.00;17.40;10.40
20157;PMS5003;10239;56.820;24.416;2023-04-09T02:22:13;22.00;18.00;10.00
20157;PMS5003;10239;56.820;24.416;2023-04-09T02:24:42;18.00;17.20;9.00
20157;PMS5003;10239;56.820;24.416;2023-04-09T02:27:11;26.80;22.20;10.40
20157;PMS5003;10239;56.820;24.416;2023-04-09T02:29:39;19.80;12.20;4.00
20157;PMS5003;10239;56.820;24.416;2023-04-09T02:32:07;16.00;13.80;8.00
20157;PMS5003;10239;56.820;24.416;2023-04-09T02:34:35;16.20;10.40;6.00
20157;PMS5003;10239;56.820;24.416;2023-04-09T02:37:02;20.20;17.80;11.60
20157;PMS5003;10239;56.820;24.416;2023-04-09T02:39:30;12.80;12.80;7.00
20157;PMS5003;10239;56.820;24.416;2023-04-09T02:41:57;20.00;18.40;9.00
20157;PMS5003;10239;56.820;24.416;2023-04-09T02:44:25;20.40;18.20;10.60
20157;PMS5003;10239;56.820;24.416;2023-04-09T02:46:54;24.00;22.20;10.80
20157;PMS5003;10239;56.820;24.416;2023-04-09T02:49:21;22.00;18.20;9.00
20157;PMS5003;10239;56.820;24.416;2023-04-09T02:51:49;26.80;21.20;11.60
20157;PMS5003;10239;56.820;24.416;2023-04-09T02:54:17;18.40;18.00;10.00
20157;PMS5003;10239;56.820;24.416;2023-04-09T02:56:44;15.80;10.80;4.00
20157;PMS5003;10239;56.820;24.416;2023-04-09T02:59:12;21.40;15.60;6.40
20157;PMS5003;10239;56.820;24.416;2023-04-09T03:01:39;18.00;15.80;10.20
20157;PMS5003;10239;56.820;24.416;2023-04-09T03:04:07;18.60;16.80;8.60
20157;PMS5003;10239;56.820;24.416;2023-04-09T03:06:35;16.00;14.20;6.60
20157;PMS5003;10239;56.820;24.416;2023-04-09T03:09:02;17.40;10.00;6.00
20157;PMS5003;10239;56.820;24.416;2023-04-09T03:11:30;13.60;12.40;7.40
20157;PMS5003;10239;56.820;24.416;2023-04-09T03:13:58;23.60;16.60;8.20
20157;PMS5003;10239;56.820;24.416;2023-04-09T03:16:25;19.00;12.80;7.00
20157;PMS5003;10239;56.820;24.416;2023-04-09T03:18:52;10.40;7.20;6.00
20157;PMS5003;10239;56.820;24.416;2023-04-09T03:21:20;16.60;12.00;6.60
20157;PMS5003;10239;56.820;24.416;2023-04-09T03:23:49;20.00;13.40;6.40
20157;PMS5003;10239;56.820;24.416;2023-04-09T03:26:17;22.80;12.00;4.80
20157;PMS5003;10239;56.820;24.416;2023-04-09T03:28:47;13.00;11.80;6.00
20157;PMS5003;10239;56.820;24.416;2023-04-09T03:31:15;17.60;15.20;9.00
20157;PMS5003;10239;56.820;24.416;2023-04-09T03:33:44;12.00;9.60;6.80
20157;PMS5003;10239;56.820;24.416;2023-04-09T03:36:12;23.20;13.00;4.00
20157;PMS5003;10239;56.820;24.416;2023-04-09T03:39:00;23.60;17.60;8.20
20157;PMS5003;10239;56.820;24.416;2023-04-09T03:41:36;15.80;12.20;6.00
20157;PMS5003;10239;56.820;24.416;2023-04-09T03:44:08;19.80;14.60;6.00
20157;PMS5003;10239;56.820;24.416;2023-04-09T03:46:56;15.00;12.00;6.00
20157;PMS5003;10239;56.820;24.416;2023-04-09T03:49:25;23.60;15.60;7.00
20157;PMS5003;10239;56.820;24.416;2023-04-09T03:51:56;17.20;12.60;7.80
20157;PMS5003;10239;56.820;24.416;2023-04-09T03:54:31;12.60;11.40;5.20
20157;PMS5003;10239;56.820;24.416;2023-04-09T03:56:59;12.60;9.40;5.20
20157;PMS5003;10239;56.820;24.416;2023-04-09T03:59:27;19.00;16.40;9.00
20157;PMS5003;10239;56.820;24.416;2023-04-09T04:01:55;21.20;14.80;9.00
20157;PMS5003;10239;56.820;24.416;2023-04-09T04:04:23;17.40;14.80;6.20
20157;PMS5003;10239;56.820;24.416;2023-04-09T04:06:54;17.60;15.40;7.00
20157;PMS5003;10239;56.820;24.416;2023-04-09T04:09:28;12.80;9.60;7.00
20157;PMS5003;10239;56.820;24.416;2023-04-09T04:12:07;22.00;13.80;7.00
20157;PMS5003;10239;56.820;24.416;2023-04-09T04:15:00;18.20;14.00;5.20
20157;PMS5003;10239;56.820;24.416;2023-04-09T04:17:34;18.80;15.60;6.60
20157;PMS5003;10239;56.820;24.416;2023-04-09T04:20:04;15.20;10.60;8.60
20157;PMS5003;10239;56.820;24.416;2023-04-09T04:22:39;16.00;16.00;9.00
20157;PMS5003;10239;56.820;24.416;2023-04-09T04:25:07;12.60;9.20;6.00
20157;PMS5003;10239;56.820;24.416;2023-04-09T04:27:34;23.20;17.60;11.60
20157;PMS5003;10239;56.820;24.416;2023-04-09T04:30:02;16.40;16.40;9.40
20157;PMS5003;10239;56.820;24.416;2023-04-09T04:32:50;26.80;21.60;10.80
20157;PMS5003;10239;56.820;24.416;2023-04-09T04:35:17;14.60;12.00;4.00
20157;PMS5003;10239;56.820;24.416;2023-04-09T04:37:48;21.00;12.00;9.00
20157;PMS5003;10239;56.820;24.416;2023-04-09T04:40:17;21.80;17.20;8.40
20157;PMS5003;10239;56.820;24.416;2023-04-09T04:42:46;24.80;17.20;10.00
20157;PMS5003;10239;56.820;24.416;2023-04-09T04:45:14;24.60;21.80;11.80
20157;PMS5003;10239;56.820;24.416;2023-04-09T04:47:47;17.80;16.60;9.60
20157;PMS5003;10239;56.820;24.416;2023-04-09T04:50:15;19.40;16.00;7.80
20157;PMS5003;10239;56.820;24.416;2023-04-09T04:52:57;13.60;12.40;7.00
20157;PMS5003;10239;56.820;24.416;2023-04-09T04:55:29;19.40;17.00;7.00
20157;PMS5003;10239;56.820;24.416;2023-04-09T04:58:00;11.80;9.60;5.00
20157;PMS5003;10239;56.820;24.416;2023-04-09T05:00:34;15.00;10.00;5.20
20157;PMS5003;10239;56.820;24.416;2023-04-09T05:03:02;11.80;10.00;5.00
20157;PMS5003;10239;56.820;24.416;2023-04-09T05:05:51;10.80;9.80;5.00
20157;PMS5003;10239;56.820;24.416;2023-04-09T05:08:20;10.40;10.40;5.20
20157;PMS5003;10239;56.820;24.416;2023-04-09T05:10:50;10.40;8.80;4.00
20157;PMS5003;10239;56.820;24.416;2023-04-09T05:13:28;11.00;8.00;3.00
20157;PMS5003;10239;56.820;24.416;2023-04-09T05:15:56;8.60;7.20;4.40
20157;PMS5003;10239;56.820;24.416;2023-04-09T05:18:25;10.00;8.20;4.00
20157;PMS5003;10239;56.820;24.416;2023-04-09T05:20:55;15.60;11.60;5.00
20157;PMS5003;10239;56.820;24.416;2023-04-09T05:23:24;8.75;8.75;4.75
20157;PMS5003;10239;56.820;24.416;2023-04-09T05:25:52;10.00;6.75;3.00
20157;PMS5003;10239;56.820;24.416;2023-04-09T05:28:26;6.25;5.00;3.00
20157;PMS5003;10239;56.820;24.416;2023-04-09T05:31:04;9.25;8.25;5.00
20157;PMS5003;10239;56.820;24.416;2023-04-09T05:33:44;8.50;7.00;3.00
20157;PMS5003;10239;56.820;24.416;2023-04-09T05:36:17;13.75;8.00;4.50
20157;PMS5003;10239;56.820;24.416;2023-04-09T05:38:45;5.50;4.75;2.00
20157;PMS5003;10239;56.820;24.416;2023-04-09T05:41:13;4.00;4.00;2.00
20157;PMS5003;10239;56.820;24.416;2023-04-09T05:43:57;2.00;2.00;2.00
20157;PMS5003;10239;56.820;24.416;2023-04-09T05:46:27;1.75;1.75;1.00
20157;PMS5003;10239;56.820;24.416;2023-04-09T05:48:55;6.75;6.00;4.00
20157;PMS5003;10239;56.820;24.416;2023-04-09T05:51:24;6.75;3.75;2.25
20157;PMS5003;10239;56.820;24.416;2023-04-09T05:53:54;5.50;4.00;2.00
20157;PMS5003;10239;56.820;24.416;2023-04-09T05:56:21;6.75;3.50;2.00
20157;PMS5003;10239;56.820;24.416;2023-04-09T05:58:53;6.00;5.25;3.00
20157;PMS5003;10239;56.820;24.416;2023-04-09T06:01:21;8.75;4.00;3.25
20157;PMS5003;10239;56.820;24.416;2023-04-09T06:03:48;9.00;5.50;2.50
20157;PMS5003;10239;56.820;24.416;2023-04-09T06:06:16;3.50;3.50;2.00
20157;PMS5003;10239;56.820;24.416;2023-04-09T06:08:44;4.25;3.75;1.00
20157;PMS5003;10239;56.820;24.416;2023-04-09T06:11:11;5.00;4.50;2.25
20157;PMS5003;10239;56.820;24.416;2023-04-09T06:13:39;4.25;4.25;2.00
20157;PMS5003;10239;56.820;24.416;2023-04-09T06:16:07;5.20;5.00;3.00
20157;PMS5003;10239;56.820;24.416;2023-04-09T06:18:35;2.40;2.40;2.00
20157;PMS5003;10239;56.820;24.416;2023-04-09T06:21:03;2.00;2.00;1.40
20157;PMS5003;10239;56.820;24.416;2023-04-09T06:23:35;2.40;2.40;1.40
20157;PMS5003;10239;56.820;24.416;2023-04-09T06:26:03;2.00;2.00;2.00
20157;PMS5003;10239;56.820;24.416;2023-04-09T06:28:30;1.40;1.40;1.40
20157;PMS5003;10239;56.820;24.416;2023-04-09T06:30:58;4.20;2.40;1.60
20157;PMS5003;10239;56.820;24.416;2023-04-09T06:33:25;2.20;2.20;1.40
20157;PMS5003;10239;56.820;24.416;2023-04-09T06:35:53;1.80;1.80;1.20
20157;PMS5003;10239;56.820;24.416;2023-04-09T06:38:21;2.00;2.00;2.00
20157;PMS5003;10239;56.820;24.416;2023-04-09T06:40:49;3.00;3.00;2.00
20157;PMS5003;10239;56.820;24.416;2023-04-09T06:43:17;3.00;3.00;2.60
20157;PMS5003;10239;56.820;24.416;2023-04-09T06:45:49;2.20;2.00;2.00
20157;PMS5003;10239;56.820;24.416;2023-04-09T06:48:17;3.00;3.00;2.00
20157;PMS5003;10239;56.820;24.416;2023-04-09T06:50:44;3.20;3.20;2.00
20157;PMS5003;10239;56.820;24.416;2023-04-09T06:53:13;1.60;1.60;1.60
20157;PMS5003;10239;56.820;24.416;2023-04-09T06:55:41;2.20;2.20;1.00
20157;PMS5003;10239;56.820;24.416;2023-04-09T06:58:09;4.00;4.00;3.00
20157;PMS5003;10239;56.820;24.416;2023-04-09T07:00:37;3.00;3.00;3.00
20157;PMS5003;10239;56.820;24.416;2023-04-09T07:03:04;3.40;3.40;2.60
20157;PMS5003;10239;56.820;24.416;2023-04-09T07:05:35;7.40;7.00;3.00
20157;PMS5003;10239;56.820;24.416;2023-04-09T07:08:02;2.00;2.00;1.00
20157;PMS5003;10239;56.820;24.416;2023-04-09T07:10:30;6.80;4.80;3.40
20157;PMS5003;10239;56.820;24.416;2023-04-09T07:12:58;3.80;3.00;0.40
20157;PMS5003;10239;56.820;24.416;2023-04-09T07:15:26;1.00;1.00;0.80
20157;PMS5003;10239;56.820;24.416;2023-04-09T07:17:53;4.00;4.00;2.60
20157;PMS5003;10239;56.820;24.416;2023-04-09T07:20:23;2.00;2.00;2.00
20157;PMS5003;10239;56.820;24.416;2023-04-09T07:22:51;0.80;0.80;0.80
20157;PMS5003;10239;56.820;24.416;2023-04-09T07:25:18;5.60;3.60;2.00
20157;PMS5003;10239;56.820;24.416;2023-04-09T07:27:47;3.20;3.20;2.00
20157;PMS5003;10239;56.820;24.416;2023-04-09T07:30:15;4.60;3.00;1.00
20157;PMS5003;10239;56.820;24.416;2023-04-09T07:32:43;2.00;2.00;1.40
20157;PMS5003;10239;56.820;24.416;2023-04-09T07:35:11;6.40;4.00;2.00
20157;PMS5003;10239;56.820;24.416;2023-04-09T07:37:39;3.20;3.20;2.00
20157;PMS5003;10239;56.820;24.416;2023-04-09T07:40:07;1.00;1.00;1.00
20157;PMS5003;10239;56.820;24.416;2023-04-09T07:42:36;2.80;2.80;1.40
20157;PMS5003;10239;56.820;24.416;2023-04-09T07:45:05;4.00;4.00;2.40
20157;PMS5003;10239;56.820;24.416;2023-04-09T07:47:33;3.00;3.00;2.00
20157;PMS5003;10239;56.820;24.416;2023-04-09T07:50:00;0.20;0.20;0.00
20157;PMS5003;10239;56.820;24.416;2023-04-09T07:52:28;1.00;1.00;1.00
20157;PMS5003;10239;56.820;24.416;2023-04-09T07:54:56;3.20;2.00;1.20
20157;PMS5003;10239;56.820;24.416;2023-04-09T07:57:24;1.80;1.80;1.00
20157;PMS5003;10239;56.820;24.416;2023-04-09T07:59:52;2.60;2.60;1.00
20157;PMS5003;10239;56.820;24.416;2023-04-09T08:02:20;0.40;0.40;0.00
20157;PMS5003;10239;56.820;24.416;2023-04-09T08:04:49;1.00;1.00;1.00
20157;PMS5003;10239;56.820;24.416;2023-04-09T08:07:17;0.00;0.00;0.00
20157;PMS5003;10239;56.820;24.416;2023-04-09T08:09:44;1.00;1.00;1.00
20157;PMS5003;10239;56.820;24.416;2023-04-09T08:12:12;2.20;2.20;1.00
20157;PMS5003;10239;56.820;24.416;2023-04-09T08:14:40;0.00;0.00;0.00
20157;PMS5003;10239;56.820;24.416;2023-04-09T08:17:07;1.00;1.00;0.20
20157;PMS5003;10239;56.820;24.416;2023-04-09T08:19:35;1.00;1.00;1.00
20157;PMS5003;10239;56.820;24.416;2023-04-09T08:22:07;0.80;0.80;0.00
20157;PMS5003;10239;56.820;24.416;2023-04-09T08:24:35;1.00;1.00;1.00
20157;PMS5003;10239;56.820;24.416;2023-04-09T08:27:03;0.80;0.80;0.20
20157;PMS5003;10239;56.820;24.416;2023-04-09T08:29:30;3.20;1.40;1.00
20157;PMS5003;10239;56.820;24.416;2023-04-09T08:31:58;2.40;2.40;1.00
20157;PMS5003;10239;56.820;24.416;2023-04-09T08:34:25;1.80;1.00;0.00
20157;PMS5003;10239;56.820;24.416;2023-04-09T08:36:54;1.00;1.00;1.00
20157;PMS5003;10239;56.820;24.416;2023-04-09T08:39:22;0.80;0.80;0.80
20157;PMS5003;10239;56.820;24.416;2023-04-09T08:41:51;0.00;0.00;0.00
20157;PMS5003;10239;56.820;24.416;2023-04-09T08:44:19;1.00;1.00;1.00
20157;PMS5003;10239;56.820;24.416;2023-04-09T08:46:47;1.40;1.40;0.00
20157;PMS5003;10239;56.820;24.416;2023-04-09T08:49:15;1.20;1.20;1.00
20157;PMS5003;10239;56.820;24.416;2023-04-09T08:51:46;0.80;0.80;0.40
20157;PMS5003;10239;56.820;24.416;2023-04-09T08:54:15;1.60;1.60;1.00
20157;PMS5003;10239;56.820;24.416;2023-04-09T08:56:45;1.00;1.00;1.00
20157;PMS5003;10239;56.820;24.416;2023-04-09T08:59:14;2.80;2.80;1.00
20157;PMS5003;10239;56.820;24.416;2023-04-09T09:01:45;1.00;1.00;0.40
20157;PMS5003;10239;56.820;24.416;2023-04-09T09:04:15;0.40;0.40;0.20
20157;PMS5003;10239;56.820;24.416;2023-04-09T09:06:43;1.40;1.40;1.00
20157;PMS5003;10239;56.820;24.416;2023-04-09T09:09:12;1.00;1.00;1.00
20157;PMS5003;10239;56.820;24.416;2023-04-09T09:11:45;0.00;0.00;0.00
20157;PMS5003;10239;56.820;24.416;2023-04-09T09:14:16;1.00;1.00;1.00
20157;PMS5003;10239;56.820;24.416;2023-04-09T09:24:24;0.40;0.40;0.40
20157;PMS5003;10239;56.820;24.416;2023-04-09T09:26:52;1.00;1.00;1.00
20157;PMS5003;10239;56.820;24.416;2023-04-09T09:29:20;1.20;1.20;1.00
20157;PMS5003;10239;56.820;24.416;2023-04-09T09:31:48;1.00;1.00;0.00
20157;PMS5003;10239;56.820;24.416;2023-04-09T09:34:18;0.60;0.60;0.60
20157;PMS5003;10239;56.820;24.416;2023-04-09T09:36:46;1.00;1.00;1.00
20157;PMS5003;10239;56.820;24.416;2023-04-09T09:39:15;1.00;1.00;1.00
20157;PMS5003;10239;56.820;24.416;2023-04-09T09:41:44;0.00;0.00;0.00
20157;PMS5003;10239;56.820;24.416;2023-04-09T09:44:28;1.00;1.00;1.00
20157;PMS5003;10239;56.820;24.416;2023-04-09T09:46:58;0.40;0.40;0.40
20157;PMS5003;10239;56.820;24.416;2023-04-09T09:49:26;1.60;1.60;0.80
20157;PMS5003;10239;56.820;24.416;2023-04-09T09:51:55;1.00;1.00;1.00
20157;PMS5003;10239;56.820;24.416;2023-04-09T09:54:25;1.20;1.20;0.40
20157;PMS5003;10239;56.820;24.416;2023-04-09T09:56:58;1.00;1.00;1.00
20157;PMS5003;10239;56.820;24.416;2023-04-09T09:59:31;1.00;1.00;1.00
20157;PMS5003;10239;56.820;24.416;2023-04-09T10:02:04;1.00;1.00;1.00
20157;PMS5003;10239;56.820;24.416;2023-04-09T10:04:33;0.00;0.00;0.00
20157;PMS5003;10239;56.820;24.416;2023-04-09T10:07:02;1.00;1.00;1.00
20157;PMS5003;10239;56.820;24.416;2023-04-09T10:09:32;0.00;0.00;0.00
20157;PMS5003;10239;56.820;24.416;2023-04-09T10:12:04;1.00;1.00;1.00
20157;PMS5003;10239;56.820;24.416;2023-04-09T10:14:34;1.40;1.40;1.00
20157;PMS5003;10239;56.820;24.416;2023-04-09T10:17:03;2.20;2.20;2.00
20157;PMS5003;10239;56.820;24.416;2023-04-09T10:19:30;2.80;2.80;1.00
20157;PMS5003;10239;56.820;24.416;2023-04-09T10:22:06;0.00;0.00;0.00
20157;PMS5003;10239;56.820;24.416;2023-04-09T10:24:38;0.80;0.80;0.80
20157;PMS5003;10239;56.820;24.416;2023-04-09T10:27:14;1.00;1.00;1.00
20157;PMS5003;10239;56.820;24.416;2023-04-09T10:29:44;1.00;1.00;1.00
20157;PMS5003;10239;56.820;24.416;2023-04-09T10:32:19;1.20;1.20;1.00
20157;PMS5003;10239;56.820;24.416;2023-04-09T10:34:49;1.00;1.00;1.00
20157;PMS5003;10239;56.820;24.416;2023-04-09T10:37:21;1.00;1.00;1.00
20157;PMS5003;10239;56.820;24.416;2023-04-09T10:39:53;0.00;0.00;0.00
20157;PMS5003;10239;56.820;24.416;2023-04-09T10:42:36;1.00;1.00;1.00
20157;PMS5003;10239;56.820;24.416;2023-04-09T10:47:38;0.00;0.00;0.00
20157;PMS5003;10239;56.820;24.416;2023-04-09T10:50:24;2.00;0.60;0.60
20157;PMS5003;10239;56.820;24.416;2023-04-09T10:52:54;1.00;1.00;0.60
20157;PMS5003;10239;56.820;24.416;2023-04-09T10:55:37;1.80;1.80;1.00
20157;PMS5003;10239;56.820;24.416;2023-04-09T10:58:07;1.00;1.00;1.00
20157;PMS5003;10239;56.820;24.416;2023-04-09T11:00:40;2.00;2.00;1.00
20157;PMS5003;10239;56.820;24.416;2023-04-09T11:03:25;1.00;1.00;1.00
20157;PMS5003;10239;56.820;24.416;2023-04-09T11:06:02;1.00;1.00;1.00
20157;PMS5003;10239;56.820;24.416;2023-04-09T11:08:37;1.40;1.40;1.00
20157;PMS5003;10239;56.820;24.416;2023-04-09T11:11:04;1.00;1.00;1.00
20157;PMS5003;10239;56.820;24.416;2023-04-09T11:13:32;1.00;1.00;1.00
20157;PMS5003;10239;56.820;24.416;2023-04-09T11:16:00;1.00;1.00;0.60
20157;PMS5003;10239;56.820;24.416;2023-04-09T11:18:33;1.00;1.00;1.00
20157;PMS5003;10239;56.820;24.416;2023-04-09T11:21:02;1.00;1.00;1.00
20157;PMS5003;10239;56.820;24.416;2023-04-09T11:23:31;1.00;1.00;0.80
20157;PMS5003;10239;56.820;24.416;2023-04-09T11:25:59;1.00;1.00;1.00
20157;PMS5003;10239;56.820;24.416;2023-04-09T11:28:28;0.20;0.20;0.00
20157;PMS5003;10239;56.820;24.416;2023-04-09T11:30:55;2.00;2.00;1.20
20157;PMS5003;10239;56.820;24.416;2023-04-09T11:33:30;1.00;1.00;0.60
20157;PMS5003;10239;56.820;24.416;2023-04-09T11:35:58;1.00;1.00;1.00
20157;PMS5003;10239;56.820;24.416;2023-04-09T11:38:27;1.20;1.20;1.00
20157;PMS5003;10239;56.820;24.416;2023-04-09T11:40:57;0.80;0.80;0.60
20157;PMS5003;10239;56.820;24.416;2023-04-09T11:43:24;1.20;1.20;1.00
20157;PMS5003;10239;56.820;24.416;2023-04-09T11:45:52;0.00;0.00;0.00
20157;PMS5003;10239;56.820;24.416;2023-04-09T11:48:23;1.00;1.00;1.00
20157;PMS5003;10239;56.820;24.416;2023-04-09T11:50:50;1.00;1.00;1.00
20157;PMS5003;10239;56.820;24.416;2023-04-09T11:53:18;1.00;1.00;1.00
20157;PMS5003;10239;56.820;24.416;2023-04-09T11:55:50;0.00;0.00;0.00
20157;PMS5003;10239;56.820;24.416;2023-04-09T11:58:22;1.20;1.20;1.00
20157;PMS5003;10239;56.820;24.416;2023-04-09T12:00:53;0.40;0.40;0.40
20157;PMS5003;10239;56.820;24.416;2023-04-09T12:03:27;1.00;1.00;0.60
20157;PMS5003;10239;56.820;24.416;2023-04-09T12:06:04;1.20;1.20;1.00
20157;PMS5003;10239;56.820;24.416;2023-04-09T12:08:35;1.00;1.00;1.00
20157;PMS5003;10239;56.820;24.416;2023-04-09T12:11:26;0.00;0.00;0.00
20157;PMS5003;10239;56.820;24.416;2023-04-09T12:14:01;1.00;1.00;0.00
20157;PMS5003;10239;56.820;24.416;2023-04-09T12:16:29;1.75;1.75;1.75
20157;PMS5003;10239;56.820;24.416;2023-04-09T12:19:07;1.00;1.00;1.00
20157;PMS5003;10239;56.820;24.416;2023-04-09T12:21:49;1.50;1.50;1.25
20157;PMS5003;10239;56.820;24.416;2023-04-09T12:24:22;1.50;1.50;1.00
20157;PMS5003;10239;56.820;24.416;2023-04-09T12:26:51;1.75;1.75;0.75
20157;PMS5003;10239;56.820;24.416;2023-04-09T12:29:19;4.00;2.50;0.50
20157;PMS5003;10239;56.820;24.416;2023-04-09T12:31:47;3.25;3.00;1.00
20157;PMS5003;10239;56.820;24.416;2023-04-09T12:34:14;5.50;3.75;2.00
20157;PMS5003;10239;56.820;24.416;2023-04-09T12:36:42;5.75;4.00;2.00
20157;PMS5003;10239;56.820;24.416;2023-04-09T12:39:10;2.50;2.50;1.00
20157;PMS5003;10239;56.820;24.416;2023-04-09T12:41:37;2.00;2.00;1.00
20157;PMS5003;10239;56.820;24.416;2023-04-09T12:44:05;4.00;3.00;2.00
20157;PMS5003;10239;56.820;24.416;2023-04-09T12:46:33;4.00;2.00;1.25
20157;PMS5003;10239;56.820;24.416;2023-04-09T12:49:01;1.00;1.00;0.50
20157;PMS5003;10239;56.820;24.416;2023-04-09T12:51:28;3.00;3.00;1.00
20157;PMS5003;10239;56.820;24.416;2023-04-09T12:53:56;3.00;2.00;0.50
20157;PMS5003;10239;56.820;24.416;2023-04-09T12:56:24;4.25;1.00;1.00
20157;PMS5003;10239;56.820;24.416;2023-04-09T12:58:54;4.50;4.50;2.50
20157;PMS5003;10239;56.820;24.416;2023-04-09T13:01:22;7.50;5.00;2.25
20157;PMS5003;10239;56.820;24.416;2023-04-09T13:03:50;5.50;5.50;2.75
20157;PMS5003;10239;56.820;24.416;2023-04-09T13:06:19;7.50;4.25;1.00
20157;PMS5003;10239;56.820;24.416;2023-04-09T13:08:48;2.00;2.00;2.00
20157;PMS5003;10239;56.820;24.416;2023-04-09T13:11:15;3.50;3.50;1.75
20157;PMS5003;10239;56.820;24.416;2023-04-09T13:13:43;13.75;11.00;5.25
20157;PMS5003;10239;56.820;24.416;2023-04-09T13:16:10;13.25;11.50;4.00
20157;PMS5003;10239;56.820;24.416;2023-04-09T13:18:38;36.50;31.75;14.25
20157;PMS5003;10239;56.820;24.416;2023-04-09T13:21:06;18.00;14.25;5.00
20157;PMS5003;10239;56.820;24.416;2023-04-09T13:23:34;10.50;4.00;2.00
20157;PMS5003;10239;56.820;24.416;2023-04-09T13:26:01;4.50;4.00;2.00
20157;PMS5003;10239;56.820;24.416;2023-04-09T13:28:29;11.75;6.50;3.00
20157;PMS5003;10239;56.820;24.416;2023-04-09T13:30:57;24.50;13.75;6.00
20157;PMS5003;10239;56.820;24.416;2023-04-09T13:33:25;8.25;6.50;3.75
20157;PMS5003;10239;56.820;24.416;2023-04-09T13:35:53;2.00;1.00;0.25
20157;PMS5003;10239;56.820;24.416;2023-04-09T13:38:20;4.25;3.50;2.00
20157;PMS5003;10239;56.820;24.416;2023-04-09T13:40:48;3.00;3.00;1.25
20157;PMS5003;10239;56.820;24.416;2023-04-09T13:43:16;6.00;4.25;2.50
20157;PMS5003;10239;56.820;24.416;2023-04-09T13:45:43;3.25;3.25;1.50
20157;PMS5003;10239;56.820;24.416;2023-04-09T13:48:11;2.00;2.00;1.75
20157;PMS5003;10239;56.820;24.416;2023-04-09T13:50:41;1.00;1.00;0.25
20157;PMS5003;10239;56.820;24.416;2023-04-09T13:53:09;0.00;0.00;0.00
20157;PMS5003;10239;56.820;24.416;2023-04-09T13:55:37;5.00;2.25;1.00
20157;PMS5003;10239;56.820;24.416;2023-04-09T13:58:05;2.00;2.00;1.00
20157;PMS5003;10239;56.820;24.416;2023-04-09T14:00:33;3.00;3.00;2.00
20157;PMS5003;10239;56.820;24.416;2023-04-09T14:03:02;2.00;2.00;1.25
20157;PMS5003;10239;56.820;24.416;2023-04-09T14:05:30;2.00;2.00;1.00
20157;PMS5003;10239;56.820;24.416;2023-04-09T14:08:01;2.00;2.00;2.00
20157;PMS5003;10239;56.820;24.416;2023-04-09T14:10:29;2.00;2.00;1.00
20157;PMS5003;10239;56.820;24.416;2023-04-09T14:12:57;1.00;1.00;1.00
20157;PMS5003;10239;56.820;24.416;2023-04-09T14:15:24;1.00;1.00;1.00
20157;PMS5003;10239;56.820;24.416;2023-04-09T14:17:52;1.75;1.75;1.50
20157;PMS5003;10239;56.820;24.416;2023-04-09T14:20:20;3.25;3.25;2.50
20157;PMS5003;10239;56.820;24.416;2023-04-09T14:22:50;4.25;2.75;1.50
20157;PMS5003;10239;56.820;24.416;2023-04-09T14:25:17;1.50;1.50;1.00
20157;PMS5003;10239;56.820;24.416;2023-04-09T14:27:45;1.50;1.50;1.00
20157;PMS5003;10239;56.820;24.416;2023-04-09T14:30:13;3.50;2.75;1.50
20157;PMS5003;10239;56.820;24.416;2023-04-09T14:32:40;1.75;1.75;1.00
20157;PMS5003;10239;56.820;24.416;2023-04-09T14:35:09;2.00;2.00;2.00
20157;PMS5003;10239;56.820;24.416;2023-04-09T14:37:36;3.00;3.00;2.00